首页
METAR-TAF:

METAR-TAF

机场 :

格拉茨, 奥地利

纬度: 47-00N, 经度: 015-26E, 海拔: 340米

当前天气观测

该预报发布于26分钟前的08:20 UTC
风速1节,风向多变
温度 26°C
湿度 61%
气压 1021 hPa
能见度10公里或以上
少量云层高于6500英尺

METAR: LOWG 080820Z VRB01KT 9999 FEW065 26/18 Q1021 NOSIG

时间: 10:46 (08:46 UTC)

预报

该预报发布于3小时和31分钟前的05:15 UTC
预报有效从08日的 06点(UTC)到 09日的 06点(UTC)
风速5节,风向多变
能见度10公里或以上
少量云层高于6500英尺

TAF: LOWG 080515Z 0806/0906 VRB05KT 9999 FEW065 TX32/0814Z TN15/0904Z

超过4000个机场的气象观测和天气预报(METAR&TAF报告)。

可查询的气象台以黄色和红色小点在地图上表示。

将鼠标移到小点上方,可查看气象台名称。

然后点击查看天气观测和预报。

如需切换地图:点击带黑十字的绿色按钮放大地图;点击带横线的绿色按钮缩小地图;或者点击绿色箭头查看邻近地区的地图。


METAR-TAF: